createdAt,value
2022-11-07T00:13:29.896Z,100268.45
2022-11-07T00:28:21.053Z,100277.25
2022-11-07T00:43:12.722Z,100276.27
2022-11-07T00:58:03.528Z,100294.19
2022-11-07T01:12:55.038Z,100307.91
2022-11-07T01:27:47.127Z,100315.13
2022-11-07T01:42:37.790Z,100303.78
2022-11-07T01:57:49.935Z,100309.10
2022-11-07T02:12:46.248Z,100301.40
2022-11-07T02:27:37.699Z,100304.30
2022-11-07T02:42:28.923Z,100296.81
2022-11-07T02:57:19.958Z,100306.03
2022-11-07T03:12:11.918Z,100314.80
2022-11-07T03:27:03.869Z,100320.37
2022-11-07T03:41:55.822Z,100327.16
2022-11-07T03:56:46.162Z,100336.81
2022-11-07T04:11:55.888Z,100346.64
2022-11-07T04:27:11.498Z,100363.03
2022-11-07T04:42:07.966Z,100375.61
2022-11-07T04:56:59.154Z,100374.45
2022-11-07T05:11:49.737Z,100374.05
2022-11-07T05:26:41.491Z,100370.03
2022-11-07T05:41:34.223Z,100371.82
2022-11-07T05:56:25.177Z,100369.66
2022-11-07T06:11:16.709Z,100385.80
2022-11-07T06:26:08.161Z,100402.97
2022-11-07T06:41:07.974Z,100398.62
2022-11-07T06:56:01.938Z,100417.44
2022-11-07T07:10:53.319Z,100434.28
2022-11-07T07:25:45.017Z,100437.16
2022-11-07T07:40:39.030Z,100433.27
2022-11-07T07:55:29.991Z,100434.70
2022-11-07T08:25:16.096Z,100444.11
2022-11-07T08:40:08.273Z,100446.59
2022-11-07T08:55:01.169Z,100456.25
2022-11-07T09:09:53.672Z,100458.25
2022-11-07T09:24:46.270Z,100460.00
2022-11-07T09:39:37.584Z,100457.88
2022-11-07T09:54:31.768Z,100456.44
2022-11-07T10:09:56.115Z,100462.13
2022-11-07T10:25:13.030Z,100472.55
2022-11-07T10:40:11.978Z,100466.53
2022-11-07T10:55:12.669Z,100467.75
2022-11-07T11:10:16.423Z,100447.44
2022-11-07T11:25:15.377Z,100440.37
2022-11-07T11:40:12.148Z,100418.17
2022-11-07T11:55:15.113Z,100401.42
2022-11-07T12:10:28.759Z,100405.55
2022-11-07T12:25:37.616Z,100402.45
2022-11-07T12:40:42.559Z,100388.84
2022-11-07T12:55:43.402Z,100403.50
2022-11-07T13:10:50.315Z,100393.27
2022-11-07T13:25:49.935Z,100379.08
2022-11-07T13:40:47.253Z,100376.38
2022-11-07T13:55:41.601Z,100385.06
2022-11-07T14:10:38.619Z,100389.63
2022-11-07T14:25:33.313Z,100394.73
2022-11-07T14:40:25.019Z,100394.75
2022-11-07T14:55:25.361Z,100398.91
2022-11-07T15:10:33.075Z,100399.16
2022-11-07T15:25:37.474Z,100393.48
2022-11-07T15:40:34.979Z,100386.31
2022-11-07T15:55:25.737Z,100384.96
2022-11-07T16:10:24.049Z,100393.91
2022-11-07T16:25:22.894Z,100392.53
2022-11-07T16:40:16.602Z,100397.73
2022-11-07T16:55:06.445Z,100393.64
2022-11-07T17:24:53.315Z,100409.72
2022-11-07T17:39:43.740Z,100414.11
2022-11-07T17:54:35.605Z,100413.66
2022-11-07T18:09:28.440Z,100412.25
2022-11-07T18:24:19.981Z,100404.74
2022-11-07T18:39:16.332Z,100396.16
2022-11-07T18:54:11.360Z,100398.73
2022-11-07T19:09:02.967Z,100393.95
2022-11-07T19:23:54.142Z,100394.41
2022-11-07T19:38:44.575Z,100400.43
2022-11-07T19:53:35.499Z,100415.22
2022-11-07T20:08:27.267Z,100408.83
2022-11-07T20:23:20.629Z,100410.63
2022-11-07T20:38:14.278Z,100407.56
2022-11-07T21:08:12.529Z,100425.73
2022-11-07T21:23:03.623Z,100411.91
2022-11-07T21:37:56.159Z,100393.55
2022-11-07T21:52:49.445Z,100371.38
2022-11-07T22:07:47.849Z,100367.42
2022-11-07T22:22:36.761Z,100357.94
2022-11-07T22:37:27.374Z,100344.20
2022-11-07T22:52:18.054Z,100330.38
2022-11-07T23:07:09.575Z,100319.88
2022-11-07T23:22:00.871Z,100310.35
2022-11-07T23:36:52.028Z,100314.53
2022-11-07T23:51:42.174Z,100301.31
